Time;durP1;ratioP1;P1;durP2;ratioP2;P2;SDS_P1;SDS_P2;PMS_P1;PMS_P2;Temp;Humidity;BMP_temperature;BMP_pressure;BME280_temperature;BME280_humidity;BME280_pressure;Samples;Min_cycle;Max_cycle;Signal;HPM_P1;HPM_P2
2023/09/22 00:00:11;;;;;;;;;;;;;;;18.51;56.69;99796.22;4959741;28;124808;-78
2023/09/22 00:02:39;;;;;;;;;;;;;;;18.44;56.70;99801.28;4964502;28;123395;-78
2023/09/22 00:05:12;;;;;;;;;;;;;;;18.38;56.57;99802.72;4961664;28;119584;-79
2023/09/22 00:07:40;;;;;;;;;;;;;;;18.35;56.70;99797.66;4965996;28;118759;-77
2023/09/22 00:10:07;;;;;;;;;;;;;;;18.29;56.75;99803.63;4960399;28;124280;-79
2023/09/22 00:12:34;;;;;;;;;;;;;;;18.26;56.73;99809.25;4961650;28;123694;-79
2023/09/22 00:15:03;;;;;;;;;;;;;;;18.24;56.83;99811.25;4956634;28;119598;-78
2023/09/22 00:17:32;;;;;;;;;;;;;;;18.21;56.58;99816.88;4958366;28;119077;-78
2023/09/22 00:19:59;;;;;;;;;;;;;;;18.18;56.73;99811.81;4951242;28;125218;-78
2023/09/22 00:22:26;;;;;;;;;;;;;;;18.17;56.85;99804.75;4964926;28;125703;-78
2023/09/22 00:24:53;;;;;;;;;;;;;;;18.13;56.66;99804.19;4952759;28;119354;-78
2023/09/22 00:27:21;;;;;;;;;;;;;;;18.11;56.50;99794.63;4963951;28;119116;-78
2023/09/22 00:29:48;;;;;;;;;;;;;;;18.04;56.61;99795.16;4964270;28;124428;-78
2023/09/22 00:32:15;;;;;;;;;;;;;;;17.98;56.67;99789.56;4962581;28;124967;-79
2023/09/22 00:34:42;;;;;;;;;;;;;;;17.92;56.67;99793.66;4960637;28;121315;-78
2023/09/22 00:37:09;;;;;;;;;;;;;;;17.87;56.71;99787.88;4962214;28;120803;-80
2023/09/22 00:39:37;;;;;;;;;;;;;;;17.83;56.58;99791.78;4964287;28;123382;-77
2023/09/22 00:42:09;;;;;;;;;;;;;;;17.78;56.53;99788.69;4964482;28;124156;-78
2023/09/22 00:44:36;;;;;;;;;;;;;;;17.73;56.71;99791.78;4964962;28;119970;-78
2023/09/22 00:47:08;;;;;;;;;;;;;;;17.67;56.49;99787.84;4958899;28;118869;-77
2023/09/22 00:49:35;;;;;;;;;;;;;;;17.60;56.59;99786.72;4968297;28;123139;-77
2023/09/22 00:52:02;;;;;;;;;;;;;;;17.56;56.62;99796.03;4970000;28;123844;-77
2023/09/22 00:54:30;;;;;;;;;;;;;;;17.51;56.55;99798.25;4967479;28;119596;-77
2023/09/22 00:56:57;;;;;;;;;;;;;;;17.47;56.47;99807.56;4959057;28;119388;-77
2023/09/22 00:59:24;;;;;;;;;;;;;;;17.39;56.60;99804.75;4973467;28;124014;-77
2023/09/22 01:01:51;;;;;;;;;;;;;;;17.31;56.67;99813.47;4961986;28;122470;-77
2023/09/22 01:04:19;;;;;;;;;;;;;;;17.25;56.68;99812.19;4969823;28;119570;-77
2023/09/22 01:06:47;;;;;;;;;;;;;;;17.19;56.50;99815.38;4957915;28;118641;-78
2023/09/22 01:09:15;;;;;;;;;;;;;;;17.13;56.70;99810.59;4964416;28;125090;-77
2023/09/22 01:11:42;;;;;;;;;;;;;;;17.09;56.70;99814.53;4963042;28;125188;-78
2023/09/22 01:14:09;;;;;;;;;;;;;;;17.07;56.74;99812.00;4964854;28;119691;-78
2023/09/22 01:16:37;;;;;;;;;;;;;;;17.05;56.93;99813.97;4969944;28;118307;-78
2023/09/22 01:19:17;;;;;;;;;;;;;;;17.04;56.81;99806.06;4964465;28;122020;-77
2023/09/22 01:21:44;;;;;;;;;;;;;;;17.03;56.69;99807.06;4947274;28;123040;-77
2023/09/22 01:24:12;;;;;;;;;;;;;;;17.01;56.67;99817.88;4967090;28;120739;-78
2023/09/22 01:26:39;;;;;;;;;;;;;;;17.00;56.63;99820.69;4964985;28;120939;-78
2023/09/22 01:29:06;;;;;;;;;;;;;;;16.96;56.62;99824.63;4970075;28;124701;-78
2023/09/22 01:31:34;;;;;;;;;;;;;;;16.93;56.74;99818.56;4977614;28;122397;-78
2023/09/22 01:34:01;;;;;;;;;;;;;;;16.90;56.78;99821.50;4975676;28;119062;-78
2023/09/22 01:36:29;;;;;;;;;;;;;;;16.89;56.74;99830.50;4951338;28;118409;-78
2023/09/22 01:39:00;;;;;;;;;;;;;;;16.86;56.68;99825.44;4968834;28;124182;-77
2023/09/22 01:41:28;;;;;;;;;;;;;;;16.86;56.72;99830.78;4968800;28;123090;-78
2023/09/22 01:43:55;;;;;;;;;;;;;;;16.84;56.69;99815.84;4967433;28;119662;-77
2023/09/22 01:46:22;;;;;;;;;;;;;;;16.83;56.68;99816.84;4966501;28;118384;-80
2023/09/22 01:48:49;;;;;;;;;;;;;;;16.80;56.78;99815.25;4951276;28;123894;-78
2023/09/22 01:51:18;;;;;;;;;;;;;;;16.79;56.94;99812.72;4966729;28;123912;-77
2023/09/22 01:53:45;;;;;;;;;;;;;;;16.78;56.74;99817.19;4947242;28;119360;-78
2023/09/22 01:56:12;;;;;;;;;;;;;;;16.78;56.94;99808.31;4948118;28;118719;-78
2023/09/22 01:58:39;;;;;;;;;;;;;;;16.76;56.95;99802.28;4959766;28;123270;-77
2023/09/22 02:01:06;;;;;;;;;;;;;;;16.77;56.92;99799.47;4971653;28;124250;-77
2023/09/22 02:03:33;;;;;;;;;;;;;;;16.75;56.82;99812.13;4951475;28;118865;-77
2023/09/22 02:06:04;;;;;;;;;;;;;;;16.73;56.73;99803.41;4965583;28;117811;-79
2023/09/22 02:08:31;;;;;;;;;;;;;;;16.71;56.67;99813.38;4964596;28;124045;-79
2023/09/22 02:10:58;;;;;;;;;;;;;;;16.69;56.65;99818.03;4960660;28;122918;-81
2023/09/22 02:13:26;;;;;;;;;;;;;;;16.66;56.73;99824.47;4966188;28;120559;-78
2023/09/22 02:15:53;;;;;;;;;;;;;;;16.64;56.63;99820.25;4958590;28;119882;-78
2023/09/22 02:18:20;;;;;;;;;;;;;;;16.61;56.90;99824.00;4964630;28;125134;-78
2023/09/22 02:20:47;;;;;;;;;;;;;;;16.60;56.68;99829.50;4961217;28;122049;-77
2023/09/22 02:23:15;;;;;;;;;;;;;;;16.58;56.88;99820.78;4964991;28;118091;-77
2023/09/22 02:25:42;;;;;;;;;;;;;;;16.55;56.82;99822.72;4964323;28;119405;-78
2023/09/22 02:28:09;;;;;;;;;;;;;;;16.53;56.92;99819.31;4963229;28;123540;-80
2023/09/22 02:30:37;;;;;;;;;;;;;;;16.51;56.91;99815.94;4962898;28;124475;-80
2023/09/22 02:33:05;;;;;;;;;;;;;;;16.48;56.90;99816.22;4976338;28;118606;-77
2023/09/22 02:35:32;;;;;;;;;;;;;;;16.47;57.03;99824.38;4966644;28;118259;-77
2023/09/22 02:37:59;;;;;;;;;;;;;;;16.45;56.97;99816.47;4967450;28;124300;-80
2023/09/22 02:40:26;;;;;;;;;;;;;;;16.44;56.90;99822.78;4966502;28;122955;-77
2023/09/22 02:42:53;;;;;;;;;;;;;;;16.44;57.04;99832.63;4967067;28;118862;-81
2023/09/22 02:45:21;;;;;;;;;;;;;;;16.44;56.91;99825.47;4968163;28;118767;-80
2023/09/22 02:47:48;;;;;;;;;;;;;;;16.44;57.13;99828.13;4963813;28;123186;-80
2023/09/22 02:50:18;;;;;;;;;;;;;;;16.45;57.13;99820.97;4949803;28;123574;-80
2023/09/22 02:52:45;;;;;;;;;;;;;;;16.44;57.04;99820.13;4950453;28;118658;-80
2023/09/22 02:55:13;;;;;;;;;;;;;;;16.43;57.02;99821.09;4967240;28;118423;-81
2023/09/22 02:57:45;;;;;;;;;;;;;;;16.43;56.86;99818.44;4969465;28;123674;-80
2023/09/22 03:00:18;;;;;;;;;;;;;;;16.43;57.07;99815.75;4964317;28;123675;-81
2023/09/22 03:02:49;;;;;;;;;;;;;;;16.44;57.15;99814.78;4965881;28;118916;-81
2023/09/22 03:05:17;;;;;;;;;;;;;;;16.45;57.19;99823.66;4945557;28;120772;-80
2023/09/22 03:07:52;;;;;;;;;;;;;;;16.45;57.11;99819.16;4968080;28;122907;-80
2023/09/22 03:10:20;;;;;;;;;;;;;;;16.47;57.02;99819.03;4964458;28;125346;-80
2023/09/22 03:12:49;;;;;;;;;;;;;;;16.48;57.01;99810.88;4963529;28;118909;-80
2023/09/22 03:15:16;;;;;;;;;;;;;;;16.47;57.11;99809.16;4953221;28;117201;-80
2023/09/22 03:17:44;;;;;;;;;;;;;;;16.49;57.21;99812.56;4961810;28;124349;-80
2023/09/22 03:20:15;;;;;;;;;;;;;;;16.52;57.30;99812.31;4964570;28;123682;-81
2023/09/22 03:22:44;;;;;;;;;;;;;;;16.53;57.19;99808.63;4967814;28;119400;-78
2023/09/22 03:25:12;;;;;;;;;;;;;;;16.55;57.15;99804.00;4973162;28;118338;-78
2023/09/22 03:27:40;;;;;;;;;;;;;;;16.55;57.09;99809.34;4965284;28;123778;-78
2023/09/22 03:30:09;;;;;;;;;;;;;;;16.57;57.11;99803.03;4966087;28;124292;-78
2023/09/22 03:32:39;;;;;;;;;;;;;;;16.57;57.20;99803.03;4974426;28;118840;-80
2023/09/22 03:35:08;;;;;;;;;;;;;;;16.55;57.23;99804.00;4961661;28;118325;-78
2023/09/22 03:37:37;;;;;;;;;;;;;;;16.57;57.25;99813.72;4967031;28;124978;-78
2023/09/22 03:40:10;;;;;;;;;;;;;;;16.57;57.34;99813.72;4948048;28;123252;-78
2023/09/22 03:42:37;;;;;;;;;;;;;;;16.58;57.27;99816.28;4974511;28;117920;-80
2023/09/22 03:45:06;;;;;;;;;;;;;;;16.60;57.35;99818.81;4965659;28;117881;-78
2023/09/22 03:47:33;;;;;;;;;;;;;;;16.59;57.29;99817.09;4967347;28;124640;-77
2023/09/22 03:50:00;;;;;;;;;;;;;;;16.60;57.20;99825.00;4966795;28;125542;-79
2023/09/22 03:52:28;;;;;;;;;;;;;;;16.62;57.43;99819.53;4966666;28;120460;-77
2023/09/22 03:54:55;;;;;;;;;;;;;;;16.63;57.37;99821.19;4957406;28;119610;-78
2023/09/22 03:57:22;;;;;;;;;;;;;;;16.64;57.28;99820.25;4962442;28;124528;-78
2023/09/22 03:59:49;;;;;;;;;;;;;;;16.66;57.18;99818.28;4960349;28;123977;-78
2023/09/22 04:02:16;;;;;;;;;;;;;;;16.67;57.38;99825.28;4965036;28;119866;-79
2023/09/22 04:04:43;;;;;;;;;;;;;;;16.68;57.31;99827.84;4967646;28;117534;-79
2023/09/22 04:07:10;;;;;;;;;;;;;;;16.70;57.37;99827.72;4964805;28;124527;-77
2023/09/22 04:09:37;;;;;;;;;;;;;;;16.71;57.50;99832.94;4966197;28;124507;-79
2023/09/22 04:12:04;;;;;;;;;;;;;;;16.72;57.26;99823.06;4965842;28;118890;-77
2023/09/22 04:14:31;;;;;;;;;;;;;;;16.73;57.39;99820.28;4958646;28;117478;-78
2023/09/22 04:17:00;;;;;;;;;;;;;;;16.75;57.31;99812.13;4963364;28;124312;-79
2023/09/22 04:19:27;;;;;;;;;;;;;;;16.76;57.33;99824.50;4972875;28;124650;-79
2023/09/22 04:21:56;;;;;;;;;;;;;;;16.75;57.38;99822.81;4965671;28;119700;-81
2023/09/22 04:24:31;;;;;;;;;;;;;;;16.77;57.35;99814.66;4961629;28;118225;-79
2023/09/22 04:27:01;;;;;;;;;;;;;;;16.77;57.31;99831.56;4967980;28;123963;-81
2023/09/22 04:29:30;;;;;;;;;;;;;;;16.80;57.52;99831.31;4955799;28;124167;-78
2023/09/22 04:31:57;;;;;;;;;;;;;;;16.80;57.34;99836.66;4959006;28;119064;-81
2023/09/22 04:34:24;;;;;;;;;;;;;;;16.81;57.36;99832.97;4948071;28;117957;-81
2023/09/22 04:36:51;;;;;;;;;;;;;;;16.83;57.26;99836.38;4953205;28;124461;-79
2023/09/22 04:39:21;;;;;;;;;;;;;;;16.85;57.35;99823.72;4966524;28;124292;-80
2023/09/22 04:41:48;;;;;;;;;;;;;;;16.87;57.45;99832.47;4962983;28;121907;-80
2023/09/22 04:44:15;;;;;;;;;;;;;;;16.89;57.33;99835.00;4952902;28;118490;-79
2023/09/22 04:46:44;;;;;;;;;;;;;;;16.90;57.42;99834.88;4965126;28;124404;-77
2023/09/22 04:49:11;;;;;;;;;;;;;;;16.92;57.38;99829.41;4953144;28;124101;-79
2023/09/22 04:51:39;;;;;;;;;;;;;;;16.93;57.31;99833.75;4959006;28;119487;-79
2023/09/22 04:54:06;;;;;;;;;;;;;;;16.93;57.37;99839.97;4961242;28;118683;-81
2023/09/22 04:56:33;;;;;;;;;;;;;;;16.93;57.56;99831.94;4966113;28;124451;-79
2023/09/22 04:59:00;;;;;;;;;;;;;;;16.95;57.45;99837.13;4966810;28;124034;-80
2023/09/22 05:01:30;;;;;;;;;;;;;;;16.95;57.37;99833.63;4948941;28;119949;-80
2023/09/22 05:03:58;;;;;;;;;;;;;;;16.98;57.32;99844.06;4965172;28;120181;-79
2023/09/22 05:06:27;;;;;;;;;;;;;;;16.96;57.52;99846.03;4964195;28;123811;-79
2023/09/22 05:08:55;;;;;;;;;;;;;;;16.97;57.43;99842.34;4965920;28;123804;-79
2023/09/22 05:11:22;;;;;;;;;;;;;;;16.96;57.42;99846.03;4965595;28;119179;-80
2023/09/22 05:13:49;;;;;;;;;;;;;;;16.94;57.30;99859.53;4968488;28;119002;-82
2023/09/22 05:16:18;;;;;;;;;;;;;;;16.91;57.54;99857.97;4960434;28;124686;-82
2023/09/22 05:18:46;;;;;;;;;;;;;;;16.91;57.34;99868.69;4963182;28;124174;-80
2023/09/22 05:21:13;;;;;;;;;;;;;;;16.91;57.26;99862.47;4968233;28;119713;-80
2023/09/22 05:23:40;;;;;;;;;;;;;;;16.90;57.48;99869.66;4965340;28;117992;-80
2023/09/22 05:26:08;;;;;;;;;;;;;;;16.90;57.29;99875.00;4969368;28;123616;-78
2023/09/22 05:28:35;;;;;;;;;;;;;;;16.89;57.27;99873.28;4968641;28;123408;-78
2023/09/22 05:31:06;;;;;;;;;;;;;;;16.87;57.36;99869.91;4957361;28;120596;-79
2023/09/22 05:33:40;;;;;;;;;;;;;;;16.86;57.42;99873.56;4962483;28;119012;-80
2023/09/22 05:36:07;;;;;;;;;;;;;;;16.86;57.35;99868.22;4961680;28;124370;-81
2023/09/22 05:38:35;;;;;;;;;;;;;;;16.86;57.44;99872.75;4964546;28;123642;-83
2023/09/22 05:41:03;;;;;;;;;;;;;;;16.85;57.39;99876.38;4971894;28;119404;-83
2023/09/22 05:43:33;;;;;;;;;;;;;;;16.83;57.38;99879.19;4963708;28;118551;-79
2023/09/22 05:46:08;;;;;;;;;;;;;;;16.82;57.48;99880.19;4964941;28;123428;-81
2023/09/22 05:48:37;;;;;;;;;;;;;;;16.81;57.59;99889.13;4945858;28;126971;-81
2023/09/22 05:51:09;;;;;;;;;;;;;;;16.80;57.34;99894.59;4969686;28;119104;-79
2023/09/22 05:53:51;;;;;;;;;;;;;;;16.79;57.37;99895.59;4957955;28;118620;-80
2023/09/22 05:56:18;;;;;;;;;;;;;;;16.79;57.57;99901.78;4958892;28;123879;-81
2023/09/22 05:58:46;;;;;;;;;;;;;;;16.78;57.40;99902.75;4971354;28;124656;-82
2023/09/22 06:01:14;;;;;;;;;;;;;;;16.77;57.65;99903.75;4962991;28;119964;-79
2023/09/22 06:03:41;;;;;;;;;;;;;;;16.77;57.36;99895.72;4965390;28;118787;-80
2023/09/22 06:06:13;;;;;;;;;;;;;;;16.77;57.53;99905.59;4964979;28;125189;-80
2023/09/22 06:08:42;;;;;;;;;;;;;;;16.77;57.68;99906.44;4960657;28;124009;-81
2023/09/22 06:11:10;;;;;;;;;;;;;;;16.76;57.43;99912.75;4962889;28;120069;-81
2023/09/22 06:13:37;;;;;;;;;;;;;;;16.77;57.79;99911.78;4967382;28;118659;-80
2023/09/22 06:16:05;;;;;;;;;;;;;;;16.78;57.62;99908.09;4967281;28;123315;-79
2023/09/22 06:18:32;;;;;;;;;;;;;;;16.79;57.67;99915.16;4966743;28;123951;-79
2023/09/22 06:21:00;;;;;;;;;;;;;;;16.82;57.63;99903.34;4963184;28;120199;-81
2023/09/22 06:23:27;;;;;;;;;;;;;;;16.84;57.54;99902.28;4960834;28;120347;-79
2023/09/22 06:26:00;;;;;;;;;;;;;;;16.87;57.72;99910.03;4959324;28;124402;-78
2023/09/22 06:28:27;;;;;;;;;;;;;;;16.92;57.86;99915.81;4951297;28;124023;-80
2023/09/22 06:30:58;;;;;;;;;;;;;;;17.00;57.82;99922.34;4961992;28;119997;-79
2023/09/22 06:33:27;;;;;;;;;;;;;;;17.07;57.76;99919.00;4966685;28;118402;-79
2023/09/22 06:35:58;;;;;;;;;;;;;;;17.15;57.87;99910.31;4964262;28;124090;-79
2023/09/22 06:38:25;;;;;;;;;;;;;;;17.24;57.85;99908.66;4969027;28;123664;-79
2023/09/22 06:40:55;;;;;;;;;;;;;;;17.31;57.89;99910.66;4968365;28;119518;-79
2023/09/22 06:43:25;;;;;;;;;;;;;;;17.40;57.90;99913.50;4968508;28;118779;-77
2023/09/22 06:45:54;;;;;;;;;;;;;;;17.49;57.97;99920.72;4967740;28;124041;-78
2023/09/22 06:48:25;;;;;;;;;;;;;;;17.55;57.91;99922.81;4966721;28;123435;-80
2023/09/22 06:50:53;;;;;;;;;;;;;;;17.63;57.82;99920.34;4957547;28;119949;-77
2023/09/22 06:53:21;;;;;;;;;;;;;;;17.70;57.77;99921.44;4967810;28;118701;-80
2023/09/22 06:55:49;;;;;;;;;;;;;;;17.78;57.85;99914.56;4968225;28;123832;-77
2023/09/22 06:58:16;;;;;;;;;;;;;;;17.85;57.92;99918.41;4967600;28;123677;-77
2023/09/22 07:00:43;;;;;;;;;;;;;;;17.91;57.95;99917.84;4967934;28;119466;-77
2023/09/22 07:03:11;;;;;;;;;;;;;;;17.98;57.82;99919.00;4968371;28;118933;-77
2023/09/22 07:05:39;;;;;;;;;;;;;;;18.04;57.89;99926.47;4967885;28;124339;-78
2023/09/22 07:08:06;;;;;;;;;;;;;;;18.11;57.73;99939.31;4967906;28;124474;-77
2023/09/22 07:10:35;;;;;;;;;;;;;;;18.15;57.62;99940.72;4967582;28;120750;-77
2023/09/22 07:13:02;;;;;;;;;;;;;;;18.23;57.96;99948.91;4961959;28;119578;-77
2023/09/22 07:15:29;;;;;;;;;;;;;;;18.31;57.86;99949.06;4968422;28;123952;-77
2023/09/22 07:17:56;;;;;;;;;;;;;;;18.38;57.83;99947.50;4962766;28;124916;-77
2023/09/22 07:20:23;;;;;;;;;;;;;;;18.46;57.75;99950.34;4960164;28;119128;-77
2023/09/22 07:22:50;;;;;;;;;;;;;;;18.53;57.72;99944.38;4963724;28;118435;-77
2023/09/22 07:25:17;;;;;;;;;;;;;;;18.57;57.56;99956.53;4957792;28;125336;-77
2023/09/22 07:27:44;;;;;;;;;;;;;;;18.61;57.52;99963.28;4962133;28;125321;-77
2023/09/22 07:30:12;;;;;;;;;;;;;;;18.64;57.61;99957.66;4963793;28;120006;-77
2023/09/22 07:32:39;;;;;;;;;;;;;;;18.70;57.60;99965.13;4967048;28;118121;-78
2023/09/22 07:35:07;;;;;;;;;;;;;;;18.76;57.63;99956.50;4963670;28;124715;-77
2023/09/22 07:37:34;;;;;;;;;;;;;;;18.82;57.57;99963.19;4965297;28;124543;-77
2023/09/22 07:40:04;;;;;;;;;;;;;;;18.82;57.36;99955.97;4962813;28;117332;-77
2023/09/22 07:42:32;;;;;;;;;;;;;;;18.85;57.37;99971.78;4960581;28;118547;-77
2023/09/22 07:44:59;;;;;;;;;;;;;;;18.88;57.39;99969.81;4966434;28;124526;-77
2023/09/22 07:47:26;;;;;;;;;;;;;;;18.92;57.45;99979.25;4976025;28;125366;-77
2023/09/22 07:49:54;;;;;;;;;;;;;;;18.96;57.51;99983.31;4967297;28;119674;-76
2023/09/22 07:52:22;;;;;;;;;;;;;;;19.00;57.46;99984.72;4957053;28;120388;-76
2023/09/22 07:54:49;;;;;;;;;;;;;;;19.07;57.45;99985.84;4966624;28;124192;-76
2023/09/22 07:57:16;;;;;;;;;;;;;;;19.11;57.44;99981.03;4965330;28;124187;-76
2023/09/22 07:59:43;;;;;;;;;;;;;;;19.15;57.35;99988.63;4966461;28;120654;-76
2023/09/22 08:02:10;;;;;;;;;;;;;;;19.19;57.26;100010.69;4963516;28;120806;-77
2023/09/22 08:04:38;;;;;;;;;;;;;;;19.22;57.33;99992.44;4966940;28;124555;-78
2023/09/22 08:07:06;;;;;;;;;;;;;;;19.29;57.46;99999.91;4966772;28;125143;-77
2023/09/22 08:09:33;;;;;;;;;;;;;;;19.35;57.52;100000.19;4966852;28;119675;-77
2023/09/22 08:12:01;;;;;;;;;;;;;;;19.43;57.38;100002.97;4966998;28;119157;-77
2023/09/22 08:14:29;;;;;;;;;;;;;;;19.52;57.54;100006.63;4965337;28;123898;-79
2023/09/22 08:17:16;;;;;;;;;;;;;;;19.63;57.46;100002.91;4962022;28;123264;-76
2023/09/22 08:19:43;;;;;;;;;;;;;;;19.69;57.20;100007.66;4965795;28;120086;-77
2023/09/22 08:22:11;;;;;;;;;;;;;;;19.70;57.12;100009.34;4966700;28;119143;-76
2023/09/22 08:24:38;;;;;;;;;;;;;;;19.72;57.13;100017.25;4964965;28;123006;-77
2023/09/22 08:27:05;;;;;;;;;;;;;;;19.76;57.19;100018.69;4966636;28;124733;-78
2023/09/22 08:29:32;;;;;;;;;;;;;;;19.77;57.07;100015.03;4964428;28;119658;-79
2023/09/22 08:31:59;;;;;;;;;;;;;;;19.79;56.87;100015.72;4948121;28;118717;-79
2023/09/22 08:34:26;;;;;;;;;;;;;;;19.80;57.01;100012.03;4965816;28;125023;-78
2023/09/22 08:36:53;;;;;;;;;;;;;;;19.82;56.99;100012.75;4966176;28;123973;-79
2023/09/22 08:39:21;;;;;;;;;;;;;;;19.86;56.96;100016.81;4967118;28;119945;-78
2023/09/22 08:41:48;;;;;;;;;;;;;;;19.88;57.06;100022.88;4967008;28;119978;-79
2023/09/22 08:44:15;;;;;;;;;;;;;;;19.94;56.98;100016.91;4966674;28;124797;-79
2023/09/22 08:46:42;;;;;;;;;;;;;;;19.99;57.01;100020.00;4966395;28;124852;-79
2023/09/22 08:49:10;;;;;;;;;;;;;;;20.05;56.92;100028.47;4969616;28;120334;-79
2023/09/22 08:51:37;;;;;;;;;;;;;;;20.08;56.88;100028.13;4969798;28;120221;-78
2023/09/22 08:54:05;;;;;;;;;;;;;;;20.14;56.94;100030.25;4970183;28;125076;-79
2023/09/22 08:56:34;;;;;;;;;;;;;;;20.22;56.97;100033.84;4966907;28;123648;-79
2023/09/22 08:59:01;;;;;;;;;;;;;;;20.31;57.06;100018.66;4970023;28;119452;-80
2023/09/22 09:01:28;;;;;;;;;;;;;;;20.45;57.05;100019.13;4969328;28;118654;-78
2023/09/22 09:03:55;;;;;;;;;;;;;;;20.56;57.04;100024.28;4968315;28;125386;-79
2023/09/22 09:06:22;;;;;;;;;;;;;;;20.67;56.93;100034.84;4970631;28;124978;-78
2023/09/22 09:09:18;;;;;;;;;;;;;;;20.70;56.78;100039.91;4967248;28;119123;-78
2023/09/22 09:12:02;;;;;;;;;;;;;;;20.68;56.33;100036.53;4936340;28;118983;-78
2023/09/22 09:14:29;;;;;;;;;;;;;;;20.65;56.45;100031.47;4945785;28;124111;-79
2023/09/22 09:16:57;;;;;;;;;;;;;;;20.64;56.40;100034.28;4949648;28;123817;-78
2023/09/22 09:19:26;;;;;;;;;;;;;;;20.61;56.26;100040.84;4950464;28;119615;-79
2023/09/22 09:22:05;;;;;;;;;;;;;;;20.53;56.02;100044.28;4958376;28;119972;-79
2023/09/22 09:24:33;;;;;;;;;;;;;;;20.46;56.02;100048.56;4957205;28;125385;-79
2023/09/22 09:27:00;;;;;;;;;;;;;;;20.39;56.18;100048.31;4949206;28;123663;-78
2023/09/22 09:29:27;;;;;;;;;;;;;;;20.35;56.02;100046.94;4961376;28;119708;-79
2023/09/22 09:31:59;;;;;;;;;;;;;;;20.33;56.33;100048.94;4965578;28;117752;-78
2023/09/22 09:34:37;;;;;;;;;;;;;;;20.36;56.30;100056.72;4968230;28;124409;-79
2023/09/22 09:37:13;;;;;;;;;;;;;;;20.38;56.26;100056.53;4956758;28;123889;-78
2023/09/22 09:39:45;;;;;;;;;;;;;;;20.39;56.19;100059.06;4969270;28;121076;-77
2023/09/22 09:42:21;;;;;;;;;;;;;;;20.43;56.53;100055.06;4968595;28;119858;-79
2023/09/22 09:44:50;;;;;;;;;;;;;;;20.47;56.24;100054.78;4956185;28;124165;-78
2023/09/22 09:47:23;;;;;;;;;;;;;;;20.49;56.16;100047.41;4969129;28;125183;-78
2023/09/22 09:49:56;;;;;;;;;;;;;;;20.47;56.18;100055.63;4965153;28;119026;-80
2023/09/22 09:52:26;;;;;;;;;;;;;;;20.43;55.98;100052.38;4969403;28;118801;-79
2023/09/22 09:55:14;;;;;;;;;;;;;;;20.43;56.04;100049.69;4968267;28;124396;-78
2023/09/22 09:57:43;;;;;;;;;;;;;;;20.45;56.17;100054.09;4968283;28;122254;-79
2023/09/22 10:00:18;;;;;;;;;;;;;;;20.49;56.05;100052.78;4968661;28;119910;-79
2023/09/22 10:02:50;;;;;;;;;;;;;;;20.54;56.31;100061.25;4962603;28;118601;-81
2023/09/22 10:05:17;;;;;;;;;;;;;;;20.55;56.00;100052.16;4963926;28;122405;-82
2023/09/22 10:07:49;;;;;;;;;;;;;;;20.54;55.95;100050.50;4970186;28;123884;-80
2023/09/22 10:10:20;;;;;;;;;;;;;;;20.55;55.87;100054.84;4967796;28;119676;-78
2023/09/22 10:12:47;;;;;;;;;;;;;;;20.58;55.84;100046.50;4962021;28;119469;-79
2023/09/22 10:15:15;;;;;;;;;;;;;;;20.61;55.89;100046.22;4968865;28;124305;-79
2023/09/22 10:17:42;;;;;;;;;;;;;;;20.65;55.86;100042.22;4967270;28;123997;-79
2023/09/22 10:20:12;;;;;;;;;;;;;;;20.69;55.85;100032.84;4964850;28;119842;-79
2023/09/22 10:22:39;;;;;;;;;;;;;;;20.74;55.99;100041.28;4965243;28;119157;-78
2023/09/22 10:25:12;;;;;;;;;;;;;;;20.82;56.03;100037.00;4965072;28;125081;-78
2023/09/22 10:27:54;;;;;;;;;;;;;;;20.88;55.87;100041.75;4971516;28;124729;-78
2023/09/22 10:30:44;;;;;;;;;;;;;;;20.94;55.87;100041.94;4952425;28;120281;-78
2023/09/22 10:33:25;;;;;;;;;;;;;;;21.04;55.87;100041.88;4962602;28;119899;-79
2023/09/22 10:35:53;;;;;;;;;;;;;;;21.12;56.02;100033.84;4959413;28;124342;-78
2023/09/22 10:38:21;;;;;;;;;;;;;;;21.19;55.88;100029.53;4947795;28;122802;-78
2023/09/22 10:41:04;;;;;;;;;;;;;;;21.29;55.83;100039.34;4958709;28;120086;-78
2023/09/22 10:43:36;;;;;;;;;;;;;;;21.37;55.73;100042.94;4966288;28;119167;-78
2023/09/22 10:46:03;;;;;;;;;;;;;;;21.46;55.70;100035.78;4962371;28;124426;-78
2023/09/22 10:48:37;;;;;;;;;;;;;;;21.52;55.74;100035.13;4964286;28;123739;-78
2023/09/22 10:51:06;;;;;;;;;;;;;;;21.55;55.54;100034.81;4957764;28;120371;-77
2023/09/22 10:53:38;;;;;;;;;;;;;;;21.55;55.20;100036.69;4961091;28;118634;-77
2023/09/22 10:56:05;;;;;;;;;;;;;;;21.55;55.27;100040.22;4960057;28;124599;-77
2023/09/22 10:58:34;;;;;;;;;;;;;;;21.58;55.44;100039.88;4963759;28;124456;-77
2023/09/22 11:01:04;;;;;;;;;;;;;;;21.67;55.59;100042.63;4964673;28;119460;-77
2023/09/22 11:03:35;;;;;;;;;;;;;;;21.80;55.63;100040.34;4965023;28;118855;-77
2023/09/22 11:06:06;;;;;;;;;;;;;;;21.91;55.53;100040.03;4965564;28;125131;-77
2023/09/22 11:08:34;;;;;;;;;;;;;;;22.00;55.43;100032.84;4967257;28;124041;-77
2023/09/22 11:11:02;;;;;;;;;;;;;;;22.11;55.51;100045.16;4965975;28;120098;-77
2023/09/22 11:13:29;;;;;;;;;;;;;;;22.21;55.38;100045.88;4967453;28;118574;-77
2023/09/22 11:15:57;;;;;;;;;;;;;;;22.30;55.25;100055.72;4964723;28;123696;-79
2023/09/22 11:18:25;;;;;;;;;;;;;;;22.33;55.17;100055.38;4966093;28;125063;-78
2023/09/22 11:20:56;;;;;;;;;;;;;;;22.38;55.11;100056.72;4960878;28;121173;-78
2023/09/22 11:23:26;;;;;;;;;;;;;;;22.40;54.96;100065.53;4977294;28;121481;-78
2023/09/22 11:26:09;;;;;;;;;;;;;;;22.39;54.79;100058.44;4957132;28;124474;-78
2023/09/22 11:28:40;;;;;;;;;;;;;;;22.34;54.63;100062.47;4964550;28;123675;-77
2023/09/22 11:31:14;;;;;;;;;;;;;;;22.33;54.63;100066.16;4966040;28;119724;-78
2023/09/22 11:33:42;;;;;;;;;;;;;;;22.33;54.86;100060.75;4957549;28;118578;-77
2023/09/22 11:36:10;;;;;;;;;;;;;;;22.33;54.83;100066.16;4961214;28;124193;-78
2023/09/22 11:38:40;;;;;;;;;;;;;;;22.32;54.63;100069.88;4963144;28;124851;-78
2023/09/22 11:41:10;;;;;;;;;;;;;;;22.32;54.60;100074.41;4964076;28;120467;-77
2023/09/22 11:43:45;;;;;;;;;;;;;;;22.31;54.71;100078.97;4961451;28;118572;-78
2023/09/22 11:46:14;;;;;;;;;;;;;;;22.32;54.63;100074.41;4960904;28;124628;-78
2023/09/22 11:48:56;;;;;;;;;;;;;;;22.30;54.49;100082.69;4963218;28;124493;-78
2023/09/22 11:51:38;;;;;;;;;;;;;;;22.30;54.55;100082.69;4968826;28;119650;-78
2023/09/22 11:54:09;;;;;;;;;;;;;;;22.25;54.36;100086.88;4962627;28;119357;-78
2023/09/22 11:56:36;;;;;;;;;;;;;;;22.20;54.38;100081.94;4953760;28;125773;-78
2023/09/22 11:59:06;;;;;;;;;;;;;;;22.19;54.56;100091.06;4962247;28;123468;-79
2023/09/22 12:01:34;;;;;;;;;;;;;;;22.17;54.32;100093.06;4963442;28;121103;-78
2023/09/22 12:04:01;;;;;;;;;;;;;;;22.15;54.30;100084.28;4955676;28;118451;-77
2023/09/22 12:06:28;;;;;;;;;;;;;;;22.11;54.42;100094.56;4959712;28;124313;-78
2023/09/22 12:08:56;;;;;;;;;;;;;;;22.13;54.47;100091.69;4959841;28;124223;-79
2023/09/22 12:11:23;;;;;;;;;;;;;;;22.16;54.57;100085.97;4956495;28;121741;-78
2023/09/22 12:13:50;;;;;;;;;;;;;;;22.22;54.60;100096.09;4965182;28;120379;-78
2023/09/22 12:16:18;;;;;;;;;;;;;;;22.30;54.55;100093.50;4962472;28;124646;-78
2023/09/22 12:18:45;;;;;;;;;;;;;;;22.41;54.71;100083.38;4956557;28;123645;-78
2023/09/22 12:21:12;;;;;;;;;;;;;;;22.53;54.80;100082.09;4962572;28;120614;-78
2023/09/22 12:23:39;;;;;;;;;;;;;;;22.66;54.62;100087.84;4961507;28;118059;-79
2023/09/22 12:26:06;;;;;;;;;;;;;;;22.80;54.70;100088.19;4952650;28;122801;-78
2023/09/22 12:28:33;;;;;;;;;;;;;;;22.92;54.60;100092.25;4962356;28;124735;-77
2023/09/22 12:31:00;;;;;;;;;;;;;;;23.06;54.66;100091.59;4963668;28;119658;-78
2023/09/22 12:33:28;;;;;;;;;;;;;;;23.15;54.41;100091.59;4968184;28;118263;-76
2023/09/22 12:35:55;;;;;;;;;;;;;;;;;;4969561;28;125042;-77
2023/09/22 12:38:22;;;;;;;;;;;;;;;23.21;54.06;100107.16;4967888;28;125064;-76
2023/09/22 12:40:50;;;;;;;;;;;;;;;23.17;53.70;100094.97;4954368;28;119405;-76